createdAt,value
2018-08-28T00:04:15.082Z,4.90
2018-08-28T00:09:18.102Z,4.33
2018-08-28T00:14:21.209Z,4.63
2018-08-28T00:19:24.282Z,5.27
2018-08-28T00:24:27.334Z,4.60
2018-08-28T00:29:30.422Z,4.13
2018-08-28T00:34:33.638Z,4.53
2018-08-28T00:39:36.743Z,5.20
2018-08-28T00:44:39.818Z,4.80
2018-08-28T00:49:42.877Z,4.07
2018-08-28T00:54:46.023Z,5.23
2018-08-28T00:59:49.054Z,5.40
2018-08-28T01:04:52.139Z,4.50
2018-08-28T01:09:55.205Z,4.00
2018-08-28T01:14:58.222Z,5.00
2018-08-28T01:20:01.291Z,4.37
2018-08-28T01:25:04.861Z,4.03
2018-08-28T01:30:07.982Z,3.87
2018-08-28T01:35:11.026Z,4.97
2018-08-28T01:40:14.058Z,3.53
2018-08-28T01:45:17.081Z,3.73
2018-08-28T01:50:20.138Z,2.60
2018-08-28T01:55:23.163Z,3.73
2018-08-28T02:00:26.166Z,3.13
2018-08-28T02:05:29.246Z,3.97
2018-08-28T02:10:32.262Z,4.10
2018-08-28T02:15:35.297Z,3.10
2018-08-28T02:20:38.328Z,3.10
2018-08-28T02:25:41.362Z,3.37
2018-08-28T02:30:44.380Z,2.50
2018-08-28T02:35:47.406Z,2.70
2018-08-28T02:40:50.439Z,2.40
2018-08-28T02:45:53.484Z,2.67
2018-08-28T02:50:56.525Z,2.27
2018-08-28T02:55:59.614Z,2.50
2018-08-28T03:01:02.609Z,2.67
2018-08-28T03:06:05.772Z,4.30
2018-08-28T03:11:09.226Z,3.60
2018-08-28T03:16:12.585Z,2.80
2018-08-28T03:21:16.009Z,2.87
2018-08-28T03:26:19.389Z,3.20
2018-08-28T03:31:22.826Z,2.20
2018-08-28T03:36:26.279Z,2.87
2018-08-28T03:41:29.774Z,2.20
2018-08-28T03:46:33.145Z,2.87
2018-08-28T03:51:36.566Z,3.00
2018-08-28T03:56:39.953Z,2.50
2018-08-28T04:01:43.384Z,2.70
2018-08-28T04:06:46.830Z,2.30
2018-08-28T04:11:50.204Z,2.30
2018-08-28T04:16:53.610Z,3.00
2018-08-28T04:21:56.979Z,2.07
2018-08-28T04:27:00.334Z,2.27
2018-08-28T04:32:03.748Z,2.53
2018-08-28T04:37:07.246Z,2.53
2018-08-28T04:42:10.645Z,2.33
2018-08-28T04:47:13.766Z,2.53
2018-08-28T04:52:17.436Z,3.63
2018-08-28T04:57:20.584Z,2.87
2018-08-28T05:02:28.714Z,3.63
2018-08-28T05:07:31.930Z,2.53
2018-08-28T05:12:35.002Z,3.27
2018-08-28T05:17:38.093Z,3.30
2018-08-28T05:22:41.174Z,3.33
2018-08-28T05:27:44.291Z,3.20
2018-08-28T05:32:47.363Z,3.03
2018-08-28T05:37:50.438Z,2.97
2018-08-28T05:42:54.247Z,2.87
2018-08-28T05:47:57.273Z,2.90
2018-08-28T05:53:00.332Z,2.73
2018-08-28T05:58:03.419Z,2.63
2018-08-28T06:03:07.058Z,4.10
2018-08-28T06:08:10.171Z,4.10
2018-08-28T06:13:13.418Z,3.30
2018-08-28T06:18:16.510Z,3.53
2018-08-28T06:23:19.578Z,4.20
2018-08-28T06:28:22.677Z,3.57
2018-08-28T06:33:25.824Z,3.77
2018-08-28T06:38:28.875Z,3.33
2018-08-28T06:43:32.051Z,3.80
2018-08-28T06:48:35.211Z,3.53
2018-08-28T06:53:38.310Z,3.17
2018-08-28T06:58:41.412Z,3.87
2018-08-28T07:03:44.508Z,3.70
2018-08-28T07:08:47.606Z,3.93
2018-08-28T07:13:50.762Z,4.30
2018-08-28T07:18:53.894Z,3.40
2018-08-28T07:23:57.094Z,3.90
2018-08-28T07:29:00.122Z,3.80
2018-08-28T07:34:03.235Z,3.13
2018-08-28T07:39:06.940Z,3.23
2018-08-28T07:44:09.983Z,2.90
2018-08-28T07:49:13.370Z,3.50
2018-08-28T07:54:16.426Z,3.40
2018-08-28T07:59:19.482Z,4.37
2018-08-28T08:04:22.538Z,2.93
2018-08-28T08:09:25.574Z,2.30
2018-08-28T08:14:28.588Z,2.33
2018-08-28T08:19:31.673Z,2.40
2018-08-28T08:24:34.726Z,2.73
2018-08-28T08:29:37.809Z,3.50
2018-08-28T08:34:40.843Z,2.30
2018-08-28T08:39:43.897Z,2.40
2018-08-28T08:44:46.961Z,2.70
2018-08-28T08:49:50.062Z,3.00
2018-08-28T08:54:53.185Z,3.17
2018-08-28T08:59:56.205Z,2.60
2018-08-28T09:04:59.247Z,2.40
2018-08-28T09:10:02.344Z,2.43
2018-08-28T09:15:05.615Z,2.93
2018-08-28T09:20:08.734Z,2.73
2018-08-28T09:25:11.863Z,2.27
2018-08-28T09:30:14.935Z,2.40
2018-08-28T09:35:17.987Z,3.10
2018-08-28T09:40:20.990Z,2.30
2018-08-28T09:45:24.022Z,2.67
2018-08-28T09:50:27.163Z,2.10
2018-08-28T09:55:30.218Z,2.97
2018-08-28T10:00:37.834Z,2.73
2018-08-28T10:05:40.965Z,2.93
2018-08-28T10:10:44.054Z,2.50
2018-08-28T10:15:47.101Z,2.83
2018-08-28T10:20:50.118Z,2.20
2018-08-28T10:25:53.151Z,2.40
2018-08-28T10:30:56.185Z,3.07
2018-08-28T10:35:59.236Z,3.03
2018-08-28T10:41:02.382Z,2.90
2018-08-28T10:46:05.760Z,2.90
2018-08-28T10:51:08.765Z,4.20
2018-08-28T10:56:11.835Z,2.33
2018-08-28T11:01:14.885Z,2.77
2018-08-28T11:06:17.939Z,2.77
2018-08-28T11:11:20.957Z,3.53
2018-08-28T11:16:23.997Z,3.17
2018-08-28T11:21:27.061Z,2.70
2018-08-28T11:26:30.215Z,2.60
2018-08-28T11:31:33.243Z,2.23
2018-08-28T11:36:36.313Z,3.10
2018-08-28T11:41:39.550Z,3.00
2018-08-28T11:46:43.658Z,2.60
2018-08-28T11:51:47.610Z,2.27
2018-08-28T11:56:51.045Z,2.40
2018-08-28T12:01:56.048Z,2.33
2018-08-28T12:07:00.401Z,3.00
2018-08-28T12:12:04.159Z,2.53
2018-08-28T12:17:08.096Z,2.53
2018-08-28T12:22:12.284Z,2.50
2018-08-28T12:27:16.413Z,2.70
2018-08-28T12:32:20.229Z,2.20
2018-08-28T12:37:24.304Z,2.70
2018-08-28T12:42:27.963Z,2.70
2018-08-28T12:47:32.370Z,2.60
2018-08-28T12:52:36.614Z,2.63
2018-08-28T12:57:39.892Z,3.17
2018-08-28T13:02:44.119Z,3.03
2018-08-28T13:07:47.876Z,3.00
2018-08-28T13:12:51.399Z,2.80
2018-08-28T13:17:54.454Z,2.83
2018-08-28T13:22:57.506Z,2.97
2018-08-28T13:28:00.588Z,3.17
2018-08-28T13:33:03.679Z,2.80
2018-08-28T13:38:06.747Z,2.90
2018-08-28T13:43:09.823Z,3.80
2018-08-28T13:48:13.006Z,3.20
2018-08-28T13:53:16.030Z,3.60
2018-08-28T13:58:19.062Z,3.00
2018-08-28T14:03:22.076Z,3.43
2018-08-28T14:08:25.088Z,3.47
2018-08-28T14:13:28.155Z,3.53
2018-08-28T14:18:31.451Z,3.83
2018-08-28T14:23:34.675Z,3.97
2018-08-28T14:28:37.711Z,4.10
2018-08-28T14:33:40.785Z,3.90
2018-08-28T14:38:43.936Z,3.50
2018-08-28T14:43:47.038Z,4.30
2018-08-28T14:48:50.225Z,3.77
2018-08-28T14:53:53.279Z,3.93
2018-08-28T14:58:56.649Z,4.90
2018-08-28T15:03:59.698Z,3.77
2018-08-28T15:09:02.863Z,3.60
2018-08-28T15:14:06.537Z,3.87
2018-08-28T15:19:10.109Z,4.50
2018-08-28T15:24:13.125Z,4.00
2018-08-28T15:29:16.166Z,3.63
2018-08-28T15:34:19.274Z,5.30
2018-08-28T15:39:22.331Z,3.50
2018-08-28T15:44:25.385Z,3.90
2018-08-28T15:49:28.527Z,3.53
2018-08-28T15:54:31.706Z,4.27
2018-08-28T15:59:34.767Z,4.00
2018-08-28T16:04:37.862Z,4.20
2018-08-28T16:09:40.906Z,4.27
2018-08-28T16:14:45.178Z,4.20
2018-08-28T16:19:48.257Z,4.50
2018-08-28T16:24:51.417Z,4.20
2018-08-28T16:29:54.998Z,4.50
2018-08-28T16:34:58.152Z,4.20
2018-08-28T16:40:01.211Z,3.90
2018-08-28T16:45:04.358Z,4.10
2018-08-28T16:50:08.387Z,4.30
2018-08-28T16:55:11.737Z,4.90
2018-08-28T17:00:14.889Z,5.03
2018-08-28T17:05:17.946Z,5.00
2018-08-28T17:10:20.993Z,5.03
2018-08-28T17:15:24.018Z,5.70
2018-08-28T17:20:27.045Z,4.60
2018-08-28T17:25:30.089Z,4.47
2018-08-28T17:30:33.229Z,5.00
2018-08-28T17:35:36.378Z,4.60
2018-08-28T17:40:39.500Z,6.23
2018-08-28T17:45:42.649Z,5.47
2018-08-28T17:50:45.673Z,5.20
2018-08-28T18:06:28.026Z,4.30
2018-08-28T18:11:31.925Z,3.83
2018-08-28T18:16:37.155Z,4.80
2018-08-28T18:21:51.261Z,3.80
2018-08-28T18:27:08.135Z,3.60
2018-08-28T18:32:17.186Z,4.30
2018-08-28T18:37:20.219Z,4.27
2018-08-28T18:42:26.746Z,3.90
2018-08-28T18:47:35.358Z,5.20
2018-08-28T18:52:39.609Z,4.20
2018-08-28T18:57:42.709Z,4.10
2018-08-28T19:02:46.110Z,4.70
2018-08-28T19:08:04.655Z,4.57
2018-08-28T19:18:48.443Z,5.70
2018-08-28T19:24:05.187Z,4.43
2018-08-28T19:29:46.696Z,4.83
2018-08-28T19:35:12.067Z,5.50
2018-08-28T19:40:26.611Z,4.80
2018-08-28T19:45:43.512Z,5.27
2018-08-28T19:56:21.722Z,5.37
2018-08-28T20:01:38.378Z,4.30
2018-08-28T20:06:53.430Z,4.03
2018-08-28T20:11:56.625Z,4.93
2018-08-28T20:16:59.772Z,4.93
2018-08-28T20:22:02.798Z,5.03
2018-08-28T20:27:06.424Z,5.20
2018-08-28T20:32:09.503Z,5.30
2018-08-28T20:37:12.613Z,5.37
2018-08-28T20:42:15.633Z,5.80
2018-08-28T20:47:18.667Z,5.07
2018-08-28T20:52:21.661Z,5.50
2018-08-28T20:57:25.405Z,5.93
2018-08-28T21:02:28.417Z,5.00
2018-08-28T21:07:31.509Z,6.20
2018-08-28T21:12:34.586Z,5.00
2018-08-28T21:17:37.708Z,5.00
2018-08-28T21:22:40.693Z,4.93
2018-08-28T21:27:43.774Z,5.57
2018-08-28T21:32:46.809Z,5.13
2018-08-28T21:37:49.849Z,4.97
2018-08-28T21:42:52.865Z,5.90
2018-08-28T21:47:56.215Z,5.60
2018-08-28T21:52:59.276Z,4.73
2018-08-28T21:58:02.318Z,4.70
2018-08-28T22:03:06.742Z,5.60
2018-08-28T22:08:09.809Z,4.53
2018-08-28T22:13:12.980Z,4.90
2018-08-28T22:18:16.077Z,4.77
2018-08-28T22:23:19.113Z,4.77
2018-08-28T22:28:22.117Z,5.30
2018-08-28T22:33:25.114Z,4.87
2018-08-28T22:38:28.133Z,5.10
2018-08-28T22:43:31.174Z,4.60
2018-08-28T22:48:34.210Z,4.73
2018-08-28T22:53:37.193Z,4.87
2018-08-28T22:58:40.258Z,4.77
2018-08-28T23:03:43.269Z,4.33
2018-08-28T23:08:46.282Z,4.27
2018-08-28T23:13:49.281Z,4.93
2018-08-28T23:18:52.273Z,4.70
2018-08-28T23:23:55.341Z,4.47
2018-08-28T23:28:58.439Z,4.43
2018-08-28T23:34:01.685Z,5.17
2018-08-28T23:39:06.117Z,4.90
2018-08-28T23:44:09.117Z,4.53
2018-08-28T23:49:12.114Z,4.47
2018-08-28T23:54:15.121Z,4.60
2018-08-28T23:59:18.114Z,4.50
